Time;durP1;ratioP1;P1;durP2;ratioP2;P2;SDS_P1;SDS_P2;PMS_P1;PMS_P2;Temp;Humidity;BMP_temperature;BMP_pressure;BME280_temperature;BME280_humidity;BME280_pressure;Samples;Min_cycle;Max_cycle;Signal;HPM_P1;HPM_P2
2023/04/07 00:01:49;;;;;;;22.80;13.15;;;5.10;99.90;;;;;;4973040;28;20030;-73
2023/04/07 00:04:15;;;;;;;21.58;12.98;;;5.20;99.90;;;;;;4973156;28;20022;-72
2023/04/07 00:06:42;;;;;;;21.67;11.88;;;5.30;99.90;;;;;;4972898;28;20031;-73
2023/04/07 00:09:09;;;;;;;24.73;13.48;;;5.30;99.90;;;;;;4973348;28;20022;-73
2023/04/07 00:11:35;;;;;;;20.55;11.45;;;5.40;99.90;;;;;;4972948;28;20541;-71
2023/04/07 00:14:02;;;;;;;20.40;12.30;;;5.40;99.90;;;;;;4972998;28;20023;-72
2023/04/07 00:16:28;;;;;;;21.30;12.32;;;5.40;99.90;;;;;;4972875;28;20043;-73
2023/04/07 00:18:53;;;;;;;21.77;11.45;;;5.50;99.90;;;;;;4973002;28;20145;-74
2023/04/07 00:21:20;;;;;;;20.88;11.20;;;5.60;99.90;;;;;;4972815;28;20047;-73
2023/04/07 00:23:46;;;;;;;19.23;9.98;;;5.70;98.90;;;;;;4975609;28;20512;-71
2023/04/07 00:26:12;;;;;;;16.95;9.35;;;5.80;98.10;;;;;;4977136;28;20070;-72
2023/04/07 00:28:40;;;;;;;16.50;9.43;;;5.90;97.20;;;;;;4959199;28;20027;-72
2023/04/07 00:31:07;;;;;;;19.45;10.27;;;5.90;97.50;;;;;;4977168;28;20105;-74
2023/04/07 00:33:33;;;;;;;18.55;9.77;;;5.90;96.80;;;;;;4959339;28;20090;-73
2023/04/07 00:35:58;;;;;;;16.70;9.07;;;6.00;95.50;;;;;;4977086;28;20038;-72
2023/04/07 00:38:24;;;;;;;20.38;10.38;;;6.00;96.40;;;;;;4976629;28;20387;-72
2023/04/07 00:40:57;;;;;;;19.58;10.13;;;6.00;95.80;;;;;;4975730;28;20034;-73
2023/04/07 00:43:24;;;;;;;16.17;9.48;;;6.00;96.10;;;;;;4958715;28;20078;-74
2023/04/07 00:45:51;;;;;;;18.85;11.02;;;6.00;95.00;;;;;;4976457;28;20043;-72
2023/04/07 00:48:17;;;;;;;18.60;9.73;;;6.00;95.40;;;;;;4975154;28;20034;-73
2023/04/07 00:50:44;;;;;;;15.90;9.90;;;6.00;95.40;;;;;;4976575;28;20494;-73
2023/04/07 00:53:11;;;;;;;15.85;9.70;;;6.00;95.20;;;;;;4976598;28;20497;-74
2023/04/07 00:55:37;;;;;;;17.75;10.00;;;6.00;94.90;;;;;;4975072;28;20026;-73
2023/04/07 00:58:06;;;;;;;17.63;11.05;;;5.90;95.10;;;;;;4976140;28;20114;-72
2023/04/07 01:00:41;;;;;;;20.02;10.68;;;5.90;95.70;;;;;;4974727;28;20018;-73
2023/04/07 01:03:22;;;;;;;16.67;10.52;;;5.90;95.50;;;;;;4958714;28;20030;-73
2023/04/07 01:05:59;;;;;;;20.13;10.20;;;5.90;96.10;;;;;;4975173;28;20513;-72
2023/04/07 01:08:56;;;;;;;17.40;10.77;;;5.90;95.50;;;;;;4956973;28;20125;-74
2023/04/07 01:11:40;;;;;;;19.48;11.80;;;5.90;95.50;;;;;;4954776;28;20470;-73
2023/04/07 01:14:10;;;;;;;18.67;11.07;;;5.80;96.00;;;;;;4975778;28;20030;-72
2023/04/07 01:16:48;;;;;;;18.70;10.30;;;5.80;95.90;;;;;;4976081;28;20046;-73
2023/04/07 01:19:22;;;;;;;18.85;11.48;;;5.80;96.30;;;;;;4973726;28;20039;-74
2023/04/07 01:21:57;;;;;;;17.88;10.20;;;5.70;97.00;;;;;;4958592;28;20026;-73
2023/04/07 01:24:55;;;;;;;20.02;10.88;;;5.80;97.20;;;;;;4973576;28;20030;-71
2023/04/07 01:27:48;;;;;;;17.95;10.60;;;5.70;97.60;;;;;;4932780;29;20496;-72
2023/04/07 01:30:17;;;;;;;22.05;11.40;;;5.70;98.60;;;;;;4935055;29;20107;-72
2023/04/07 01:32:46;;;;;;;17.85;10.32;;;5.60;99.20;;;;;;4918978;29;20130;-72
2023/04/07 01:35:13;;;;;;;17.90;10.20;;;5.60;99.90;;;;;;4898697;29;20036;-73
2023/04/07 01:37:40;;;;;;;19.67;11.95;;;5.60;99.90;;;;;;4897844;29;20127;-73
2023/04/07 01:40:07;;;;;;;18.85;11.18;;;5.50;99.90;;;;;;4914411;29;20157;-72
2023/04/07 01:42:35;;;;;;;22.42;11.57;;;5.50;99.90;;;;;;4914363;29;20448;-73
2023/04/07 01:45:03;;;;;;;18.67;11.07;;;5.40;99.90;;;;;;4894980;29;20074;-73
2023/04/07 01:47:29;;;;;;;20.88;12.35;;;5.40;99.90;;;;;;4898185;29;20047;-72
2023/04/07 01:50:02;;;;;;;21.15;12.38;;;5.40;99.90;;;;;;4914488;29;20585;-72
2023/04/07 01:52:29;;;;;;;21.38;12.15;;;5.40;99.90;;;;;;4914127;29;20040;-73
2023/04/07 01:54:56;;;;;;;20.83;10.93;;;5.40;99.90;;;;;;4914583;29;20497;-71
2023/04/07 01:57:22;;;;;;;16.67;9.93;;;5.30;99.90;;;;;;4914084;29;20048;-73
2023/04/07 01:59:52;;;;;;;21.63;11.35;;;5.40;99.90;;;;;;4914174;29;20020;-72
2023/04/07 02:02:22;;;;;;;20.73;11.13;;;5.50;99.90;;;;;;4914471;29;20036;-73
2023/04/07 02:04:52;;;;;;;21.40;10.90;;;5.50;99.90;;;;;;4924469;28;20038;-72
2023/04/07 02:07:23;;;;;;;15.27;9.65;;;5.40;99.90;;;;;;4970544;28;20130;-72
2023/04/07 02:09:54;;;;;;;18.70;10.23;;;5.50;99.90;;;;;;4940428;28;20036;-73
2023/04/07 02:12:22;;;;;;;18.58;9.93;;;5.60;99.60;;;;;;4973711;28;20414;-73
2023/04/07 02:15:00;;;;;;;18.33;10.75;;;5.60;99.20;;;;;;4939965;28;20033;-73
2023/04/07 02:17:28;;;;;;;18.73;10.00;;;5.70;99.00;;;;;;4955284;28;20067;-73
2023/04/07 02:19:56;;;;;;;18.60;10.77;;;5.70;98.60;;;;;;4938946;28;20078;-73
2023/04/07 02:22:21;;;;;;;18.70;10.98;;;5.70;98.30;;;;;;4939863;29;20126;-71
2023/04/07 02:24:47;;;;;;;18.80;10.27;;;5.70;98.50;;;;;;4973422;28;20105;-72
2023/04/07 02:27:13;;;;;;;36.08;21.23;;;5.70;98.20;;;;;;4939552;28;20042;-73
2023/04/07 02:29:39;;;;;;;35.25;19.67;;;5.70;98.30;;;;;;4939342;28;20031;-71
2023/04/07 02:32:05;;;;;;;19.33;10.65;;;5.70;98.80;;;;;;4972599;28;20030;-72
2023/04/07 02:34:31;;;;;;;17.35;10.75;;;5.70;99.00;;;;;;4972146;28;20023;-74
2023/04/07 02:36:57;;;;;;;17.00;9.75;;;5.60;99.50;;;;;;4939088;28;20101;-73
2023/04/07 02:39:23;;;;;;;20.63;10.93;;;5.50;99.90;;;;;;4971073;28;20034;-74
2023/04/07 02:41:49;;;;;;;19.05;10.55;;;5.50;99.90;;;;;;4972981;28;20493;-73
2023/04/07 02:44:15;;;;;;;18.48;12.30;;;5.60;99.50;;;;;;4938945;28;20130;-75
2023/04/07 02:46:41;;;;;;;25.42;15.23;;;5.60;99.50;;;;;;4942852;28;20038;-74
2023/04/07 02:49:07;;;;;;;24.55;14.05;;;5.60;99.40;;;;;;4972802;28;20383;-72
2023/04/07 02:51:33;;;;;;;21.95;12.45;;;5.60;99.80;;;;;;4975350;28;20097;-74
2023/04/07 02:53:59;;;;;;;20.58;10.75;;;5.60;99.90;;;;;;4955048;28;20043;-74
2023/04/07 02:56:25;;;;;;;19.77;11.57;;;5.70;99.90;;;;;;4958942;28;20093;-71
2023/04/07 02:58:50;;;;;;;18.23;11.82;;;5.60;99.90;;;;;;4955209;28;20420;-75
2023/04/07 03:01:17;;;;;;;44.55;26.20;;;5.60;99.90;;;;;;4956001;28;20569;-73
2023/04/07 03:03:43;;;;;;;36.38;22.38;;;5.60;99.90;;;;;;4972037;28;20023;-73
2023/04/07 03:06:16;;;;;;;28.23;17.30;;;5.50;99.90;;;;;;4968055;28;20027;-73
2023/04/07 03:09:03;;;;;;;33.92;16.65;;;5.50;99.90;;;;;;4953630;28;20033;-72
2023/04/07 03:11:29;;;;;;;24.13;15.10;;;5.50;99.90;;;;;;4937847;28;20401;-72
2023/04/07 03:13:57;;;;;;;32.53;17.52;;;5.50;99.90;;;;;;4954690;28;20031;-74
2023/04/07 03:16:25;;;;;;;29.40;17.90;;;5.50;99.90;;;;;;4943787;28;20399;-73
2023/04/07 03:19:00;;;;;;;29.05;17.88;;;5.50;99.90;;;;;;4953735;28;20031;-74
2023/04/07 03:21:28;;;;;;;22.40;13.48;;;5.40;99.90;;;;;;4949944;28;20030;-73
2023/04/07 03:23:54;;;;;;;21.58;12.82;;;5.50;99.90;;;;;;4953465;28;20027;-74
2023/04/07 03:26:20;;;;;;;22.23;11.82;;;5.40;99.90;;;;;;4971992;28;20022;-72
2023/04/07 03:28:46;;;;;;;21.10;12.85;;;5.50;99.90;;;;;;4969129;28;20026;-73
2023/04/07 03:31:13;;;;;;;21.55;12.15;;;5.50;99.90;;;;;;4938460;28;20030;-74
2023/04/07 03:33:39;;;;;;;22.15;12.50;;;5.50;99.90;;;;;;4972445;28;20034;-72
2023/04/07 03:36:05;;;;;;;23.45;12.23;;;5.60;99.90;;;;;;4972108;28;20122;-74
2023/04/07 03:38:31;;;;;;;20.95;12.43;;;5.60;99.90;;;;;;4954497;28;20122;-74
2023/04/07 03:41:00;;;;;;;18.33;10.85;;;5.60;99.90;;;;;;4937342;28;20106;-75
2023/04/07 03:43:26;;;;;;;17.40;11.00;;;5.60;99.90;;;;;;4938418;29;20151;-72
2023/04/07 03:45:53;;;;;;;18.45;11.68;;;5.60;99.90;;;;;;4971460;28;20426;-74
2023/04/07 03:48:20;;;;;;;16.83;9.95;;;5.60;99.90;;;;;;4937443;28;20407;-73
2023/04/07 03:51:01;;;;;;;19.92;11.50;;;5.50;99.90;;;;;;4937502;28;20483;-74
2023/04/07 03:53:27;;;;;;;18.55;11.20;;;5.40;99.90;;;;;;4954048;28;20030;-75
2023/04/07 03:55:53;;;;;;;17.42;10.40;;;5.40;99.90;;;;;;4937555;29;20506;-72
2023/04/07 03:58:32;;;;;;;20.17;11.30;;;5.30;99.90;;;;;;4950795;28;20039;-73
2023/04/07 04:00:58;;;;;;;19.70;10.80;;;5.30;99.90;;;;;;4938951;29;20364;-75
2023/04/07 04:03:24;;;;;;;19.05;12.43;;;5.20;99.90;;;;;;4959464;28;20031;-73
2023/04/07 04:06:02;;;;;;;19.70;12.18;;;5.10;99.90;;;;;;4955907;28;20035;-74
2023/04/07 04:08:30;;;;;;;20.77;12.27;;;5.10;99.90;;;;;;4956231;28;20033;-72
2023/04/07 04:10:56;;;;;;;20.75;12.60;;;5.10;99.90;;;;;;4973274;28;20471;-73
2023/04/07 04:13:26;;;;;;;20.58;12.18;;;5.10;99.90;;;;;;4956133;28;20033;-74
2023/04/07 04:15:54;;;;;;;18.83;11.15;;;5.00;99.90;;;;;;4971766;28;20067;-73
2023/04/07 04:18:19;;;;;;;21.13;12.57;;;5.00;99.90;;;;;;4955338;28;20038;-74
2023/04/07 04:20:47;;;;;;;21.10;12.10;;;5.00;99.90;;;;;;4955382;28;20027;-72
2023/04/07 04:23:14;;;;;;;20.20;12.93;;;4.90;99.90;;;;;;4955322;28;20454;-74
2023/04/07 04:25:41;;;;;;;22.77;12.95;;;4.90;99.90;;;;;;4971096;28;20118;-74
2023/04/07 04:28:09;;;;;;;22.60;13.65;;;4.80;99.90;;;;;;4955386;28;20402;-75
2023/04/07 04:30:35;;;;;;;25.45;15.02;;;4.80;99.90;;;;;;4955572;28;20031;-74
2023/04/07 04:33:03;;;;;;;21.20;12.95;;;4.80;99.90;;;;;;4955276;28;20030;-72
2023/04/07 04:35:55;;;;;;;25.55;16.20;;;4.80;99.90;;;;;;4970260;28;20214;-74
2023/04/07 04:38:21;;;;;;;22.50;13.80;;;4.70;99.90;;;;;;4955614;28;20041;-73
2023/04/07 04:40:53;;;;;;;24.92;14.15;;;4.70;99.90;;;;;;4972698;28;20382;-73
2023/04/07 04:43:24;;;;;;;21.05;13.48;;;4.70;99.90;;;;;;4955510;28;20085;-73
2023/04/07 04:45:51;;;;;;;20.38;13.60;;;4.60;99.90;;;;;;4972627;28;20480;-74
2023/04/07 04:48:19;;;;;;;21.23;13.35;;;4.60;99.90;;;;;;4955198;28;20031;-76
2023/04/07 04:50:46;;;;;;;23.85;15.02;;;4.60;99.90;;;;;;4971656;28;20046;-73
2023/04/07 04:53:14;;;;;;;27.48;15.63;;;4.60;99.90;;;;;;4955241;28;20054;-73
2023/04/07 04:55:52;;;;;;;26.52;16.40;;;4.50;99.90;;;;;;4955223;28;20070;-75
2023/04/07 04:58:21;;;;;;;24.75;15.07;;;4.60;99.90;;;;;;4955011;28;20030;-72
2023/04/07 05:00:57;;;;;;;22.17;14.82;;;4.50;99.90;;;;;;4955055;28;20043;-72
2023/04/07 05:03:28;;;;;;;22.38;14.05;;;4.50;99.90;;;;;;4955076;28;20035;-73
2023/04/07 05:05:57;;;;;;;22.20;15.05;;;4.40;99.90;;;;;;4954970;28;20057;-72
2023/04/07 05:08:23;;;;;;;26.80;17.17;;;4.40;99.90;;;;;;4955965;28;20027;-73
2023/04/07 05:10:48;;;;;;;25.75;15.82;;;4.40;99.90;;;;;;4975496;28;20037;-75
2023/04/07 05:13:19;;;;;;;24.00;16.45;;;4.40;99.90;;;;;;4941760;28;20404;-74
2023/04/07 05:15:45;;;;;;;25.80;15.73;;;4.40;99.90;;;;;;4974669;28;20034;-72
2023/04/07 05:18:13;;;;;;;25.83;15.43;;;4.40;99.90;;;;;;4958785;28;20127;-74
2023/04/07 05:20:40;;;;;;;26.95;16.92;;;4.30;99.90;;;;;;4958670;28;20034;-74
2023/04/07 05:23:07;;;;;;;49.60;27.80;;;4.30;99.90;;;;;;4974630;28;20062;-75
2023/04/07 05:25:35;;;;;;;54.22;28.08;;;4.30;99.90;;;;;;4958806;28;20023;-74
2023/04/07 05:28:03;;;;;;;32.55;18.92;;;4.40;99.90;;;;;;4942899;28;20491;-72
2023/04/07 05:30:31;;;;;;;25.20;16.65;;;4.40;99.90;;;;;;4974596;28;20034;-74
2023/04/07 05:32:57;;;;;;;27.25;16.90;;;4.50;99.90;;;;;;4958099;28;20030;-75
2023/04/07 05:35:35;;;;;;;23.67;15.80;;;4.50;99.90;;;;;;4958356;28;20061;-73
2023/04/07 05:38:02;;;;;;;26.98;16.48;;;4.50;99.90;;;;;;4957917;28;20487;-75
2023/04/07 05:40:29;;;;;;;22.73;15.88;;;4.60;99.90;;;;;;4958518;28;20058;-72
2023/04/07 05:42:57;;;;;;;24.73;16.27;;;4.60;99.90;;;;;;4974716;28;20483;-76
2023/04/07 05:45:24;;;;;;;28.20;17.73;;;4.50;99.90;;;;;;4974069;28;20554;-73
2023/04/07 05:47:51;;;;;;;25.58;16.63;;;4.50;99.90;;;;;;4975737;28;20027;-74
2023/04/07 05:50:24;;;;;;;;;;;4.60;99.90;;;;;;4958498;28;20501;-74
2023/04/07 05:52:50;;;;;;;25.75;17.40;;;4.60;99.90;;;;;;4958290;28;19910;-75
2023/04/07 05:55:21;;;;;;;25.63;16.67;;;4.70;99.90;;;;;;4958321;28;20434;-72
2023/04/07 05:57:48;;;;;;;27.30;16.45;;;4.70;99.90;;;;;;4973974;28;20126;-75
2023/04/07 06:00:17;;;;;;;24.10;15.77;;;4.80;99.90;;;;;;4958302;28;20019;-74
2023/04/07 06:02:49;;;;;;;23.00;15.07;;;4.70;99.90;;;;;;4957699;28;20023;-74
2023/04/07 06:05:18;;;;;;;25.02;16.20;;;4.70;99.90;;;;;;4958051;28;20368;-75
2023/04/07 06:07:45;;;;;;;23.23;16.15;;;4.70;99.90;;;;;;4968820;28;20054;-75
2023/04/07 06:10:13;;;;;;;23.08;15.93;;;4.60;99.90;;;;;;4972736;28;20450;-71
2023/04/07 06:12:39;;;;;;;24.85;16.55;;;4.50;99.90;;;;;;4972607;28;20023;-74
2023/04/07 06:15:05;;;;;;;22.48;14.65;;;4.50;99.90;;;;;;4951474;29;20023;-74
2023/04/07 06:17:31;;;;;;;24.10;15.68;;;4.50;99.90;;;;;;4971633;28;20052;-74
2023/04/07 06:19:57;;;;;;;26.90;15.85;;;4.50;99.90;;;;;;4974407;28;20026;-74
2023/04/07 06:22:23;;;;;;;25.20;16.13;;;4.50;99.90;;;;;;4973762;28;20394;-73
2023/04/07 06:24:48;;;;;;;28.50;17.50;;;4.50;99.90;;;;;;4957482;28;20035;-74
2023/04/07 06:27:16;;;;;;;25.42;17.75;;;4.50;99.90;;;;;;4974980;28;20505;-73
2023/04/07 06:29:41;;;;;;;25.05;17.88;;;4.50;99.90;;;;;;4974716;28;20058;-74
2023/04/07 06:32:08;;;;;;;27.50;16.90;;;4.60;99.90;;;;;;4956503;28;20245;-73
2023/04/07 06:34:35;;;;;;;27.05;17.48;;;4.70;99.90;;;;;;4954303;28;20463;-74
2023/04/07 06:37:01;;;;;;;25.88;17.90;;;4.70;99.90;;;;;;4974452;28;20082;-72
2023/04/07 06:39:27;;;;;;;23.33;16.20;;;4.80;99.90;;;;;;4974932;28;20027;-75
2023/04/07 06:41:53;;;;;;;27.13;18.58;;;4.80;99.90;;;;;;4975224;28;20041;-72
2023/04/07 06:44:19;;;;;;;25.88;17.38;;;4.80;99.90;;;;;;4974328;28;20054;-71
2023/04/07 06:46:48;;;;;;;29.08;18.52;;;4.80;99.90;;;;;;4957212;28;20469;-72
2023/04/07 06:49:15;;;;;;;25.85;16.48;;;4.90;99.90;;;;;;4964999;28;20079;-74
2023/04/07 06:51:41;;;;;;;25.63;16.50;;;4.80;99.90;;;;;;4974444;28;20027;-74
2023/04/07 06:54:11;;;;;;;25.67;17.13;;;5.00;99.90;;;;;;4971564;28;20133;-74
2023/04/07 06:56:39;;;;;;;24.02;16.88;;;5.00;99.90;;;;;;4974683;28;20526;-74
2023/04/07 06:59:04;;;;;;;28.95;18.15;;;5.10;99.90;;;;;;4975028;28;20493;-73
2023/04/07 07:01:30;;;;;;;25.33;17.33;;;5.20;99.90;;;;;;4961464;28;20027;-73
2023/04/07 07:03:56;;;;;;;24.77;15.68;;;5.20;99.90;;;;;;4967573;28;20412;-75
2023/04/07 07:06:22;;;;;;;24.92;14.60;;;5.30;99.90;;;;;;4972324;28;20375;-74
2023/04/07 07:08:47;;;;;;;26.02;16.23;;;5.30;99.90;;;;;;4974193;28;20030;-73
2023/04/07 07:11:13;;;;;;;25.40;16.95;;;5.20;99.90;;;;;;4975125;28;20019;-74
2023/04/07 07:13:39;;;;;;;24.80;16.33;;;5.30;99.90;;;;;;4969236;28;20029;-74
2023/04/07 07:16:05;;;;;;;21.95;15.10;;;5.40;99.90;;;;;;4973933;28;20022;-74
2023/04/07 07:18:31;;;;;;;20.80;14.68;;;5.50;99.90;;;;;;4972575;28;20053;-73
2023/04/07 07:20:57;;;;;;;23.15;14.27;;;5.40;99.90;;;;;;4973867;28;20454;-71
2023/04/07 07:23:23;;;;;;;21.85;14.52;;;5.50;99.90;;;;;;4973617;28;20035;-73
2023/04/07 07:25:49;;;;;;;23.92;16.08;;;5.50;99.90;;;;;;4973476;28;20031;-74
2023/04/07 07:28:15;;;;;;;27.80;16.33;;;5.50;99.90;;;;;;4972442;28;20027;-73
2023/04/07 07:30:41;;;;;;;25.35;15.15;;;5.60;99.90;;;;;;4973163;28;20027;-72
2023/04/07 07:33:06;;;;;;;26.25;16.55;;;5.70;99.90;;;;;;4966335;28;20031;-73
2023/04/07 07:35:32;;;;;;;27.58;15.32;;;5.90;99.90;;;;;;4972148;28;20395;-75
2023/04/07 07:37:58;;;;;;;25.10;15.48;;;5.90;99.90;;;;;;4973598;28;20038;-73
2023/04/07 07:40:24;;;;;;;28.98;18.40;;;5.80;99.90;;;;;;4971519;28;20142;-72
2023/04/07 07:42:50;;;;;;;22.55;14.60;;;5.90;99.90;;;;;;4973619;28;20030;-73
2023/04/07 07:45:18;;;;;;;23.52;16.00;;;5.90;99.90;;;;;;4972734;28;20393;-73
2023/04/07 07:47:44;;;;;;;26.15;17.08;;;6.20;99.90;;;;;;4973513;28;20059;-73
2023/04/07 07:50:10;;;;;;;23.75;15.63;;;6.40;99.90;;;;;;4972521;28;20018;-72
2023/04/07 07:52:36;;;;;;;25.55;16.33;;;6.50;99.90;;;;;;4973110;28;20039;-72
2023/04/07 07:55:02;;;;;;;26.98;17.20;;;6.60;99.90;;;;;;4973264;28;20030;-73
2023/04/07 07:57:29;;;;;;;22.95;15.25;;;6.60;99.90;;;;;;4973042;28;20513;-74
2023/04/07 07:59:55;;;;;;;21.10;14.93;;;6.60;99.90;;;;;;4973045;28;20015;-74
2023/04/07 08:02:21;;;;;;;26.20;16.88;;;6.70;99.90;;;;;;4973111;28;20529;-74
2023/04/07 08:04:52;;;;;;;21.83;14.48;;;6.90;99.90;;;;;;4972974;28;20070;-73
2023/04/07 08:07:18;;;;;;;23.63;14.30;;;6.70;99.90;;;;;;4972503;28;20375;-73
2023/04/07 08:09:44;;;;;;;23.02;14.75;;;6.80;99.90;;;;;;4973179;28;20023;-73
2023/04/07 08:12:10;;;;;;;22.63;14.82;;;6.80;99.90;;;;;;4972031;28;20133;-73
2023/04/07 08:14:36;;;;;;;21.33;13.25;;;6.70;99.90;;;;;;4972954;28;20019;-72
2023/04/07 08:17:02;;;;;;;21.55;14.73;;;6.60;99.90;;;;;;4972793;28;20039;-74
2023/04/07 08:19:30;;;;;;;21.50;14.70;;;6.60;99.90;;;;;;4960027;28;20101;-73
2023/04/07 08:21:56;;;;;;;21.67;14.93;;;6.50;99.90;;;;;;4972792;28;20037;-73
2023/04/07 08:24:22;;;;;;;22.08;15.68;;;6.60;99.90;;;;;;4972946;28;20023;-73
2023/04/07 08:26:48;;;;;;;23.85;15.52;;;6.70;99.90;;;;;;4972760;28;20038;-73
2023/04/07 08:29:14;;;;;;;25.02;15.88;;;6.60;99.90;;;;;;4972563;28;20015;-72
2023/04/07 08:31:45;;;;;;;21.60;14.75;;;6.70;99.90;;;;;;4972650;28;20486;-72
2023/04/07 08:34:12;;;;;;;21.95;14.38;;;6.70;99.90;;;;;;4972644;28;20061;-72
2023/04/07 08:36:38;;;;;;;24.80;14.82;;;6.70;99.90;;;;;;4972718;28;20034;-73
2023/04/07 08:39:04;;;;;;;23.13;14.52;;;7.00;99.90;;;;;;4971167;28;20170;-73
2023/04/07 08:41:37;;;;;;;22.55;14.43;;;7.00;99.90;;;;;;4968717;28;20031;-74
2023/04/07 08:44:03;;;;;;;20.50;14.00;;;7.20;99.90;;;;;;4974648;28;20058;-74
2023/04/07 08:46:29;;;;;;;20.73;14.80;;;7.40;99.90;;;;;;4976209;28;20038;-71
2023/04/07 08:48:56;;;;;;;23.70;15.15;;;7.30;99.90;;;;;;4977054;28;20039;-74
2023/04/07 08:51:30;;;;;;;22.50;14.68;;;7.30;99.90;;;;;;4975650;28;20020;-73
2023/04/07 08:54:08;;;;;;;21.13;13.82;;;7.30;99.90;;;;;;4974517;28;20023;-74
2023/04/07 08:56:35;;;;;;;19.98;13.45;;;7.20;99.90;;;;;;4968038;28;20455;-73
2023/04/07 08:59:01;;;;;;;23.42;13.75;;;7.20;99.90;;;;;;4976588;28;20019;-72
2023/04/07 09:01:29;;;;;;;21.45;14.98;;;7.10;99.90;;;;;;4970154;28;20023;-71
2023/04/07 09:03:57;;;;;;;24.08;15.55;;;7.20;99.90;;;;;;4968793;28;20058;-74
2023/04/07 09:06:23;;;;;;;20.98;14.05;;;7.30;99.90;;;;;;4972590;28;20031;-73
2023/04/07 09:08:55;;;;;;;19.40;13.35;;;7.20;99.90;;;;;;4975641;28;20111;-71
2023/04/07 09:11:22;;;;;;;20.05;12.98;;;7.20;99.90;;;;;;4959319;28;20038;-73
2023/04/07 09:13:49;;;;;;;23.13;14.10;;;7.20;99.90;;;;;;4976153;28;20019;-73
2023/04/07 09:16:15;;;;;;;22.60;14.00;;;7.20;99.90;;;;;;4972577;28;20094;-73
2023/04/07 09:18:41;;;;;;;19.90;13.57;;;7.10;99.90;;;;;;4969625;28;20070;-73
2023/04/07 09:21:10;;;;;;;20.10;14.38;;;7.00;99.90;;;;;;4975286;28;20501;-74
2023/04/07 09:23:37;;;;;;;20.95;14.27;;;7.00;99.90;;;;;;4966912;28;20091;-72
2023/04/07 09:26:26;;;;;;;19.85;13.90;;;6.90;99.90;;;;;;4974621;28;20045;-70
2023/04/07 09:28:59;;;;;;;25.58;15.95;;;7.00;99.90;;;;;;4975855;28;20018;-74
2023/04/07 09:31:49;;;;;;;22.55;14.30;;;7.00;99.90;;;;;;4973087;28;20031;-75
2023/04/07 09:34:35;;;;;;;24.42;15.05;;;6.90;99.90;;;;;;4961155;28;20553;-73
2023/04/07 09:37:02;;;;;;;24.23;15.27;;;6.90;99.90;;;;;;4975162;28;20486;-73
2023/04/07 09:39:28;;;;;;;21.60;14.27;;;6.80;99.90;;;;;;4974424;28;20055;-73
2023/04/07 09:41:54;;;;;;;25.63;14.55;;;6.70;99.90;;;;;;4972677;28;20465;-71
2023/04/07 09:44:21;;;;;;;23.70;15.60;;;6.60;99.90;;;;;;4974923;28;20042;-73
2023/04/07 09:46:49;;;;;;;20.65;14.20;;;6.60;99.90;;;;;;4975303;28;20115;-71
2023/04/07 09:49:15;;;;;;;23.40;15.48;;;6.50;99.90;;;;;;4966424;28;20035;-76
2023/04/07 09:51:58;;;;;;;21.75;14.27;;;6.50;99.90;;;;;;4964717;28;20386;-71
2023/04/07 09:54:38;;;;;;;23.88;16.83;;;6.60;99.90;;;;;;4973419;28;20475;-71
2023/04/07 09:57:06;;;;;;;21.15;15.75;;;6.80;99.90;;;;;;4974409;28;20046;-70
2023/04/07 09:59:34;;;;;;;25.13;13.82;;;6.70;99.90;;;;;;4974984;28;20029;-73
2023/04/07 10:02:00;;;;;;;21.63;14.90;;;6.60;99.90;;;;;;4965064;28;20126;-73
2023/04/07 10:04:27;;;;;;;23.52;15.98;;;6.40;99.90;;;;;;4970320;28;20077;-74
2023/04/07 10:06:55;;;;;;;24.00;16.48;;;6.60;99.90;;;;;;4973346;28;20122;-73
2023/04/07 10:09:26;;;;;;;23.60;16.65;;;6.70;99.90;;;;;;4973517;28;20019;-71
2023/04/07 10:11:54;;;;;;;21.80;14.07;;;6.80;99.90;;;;;;4973362;28;20081;-73
2023/04/07 10:14:22;;;;;;;23.38;15.52;;;6.70;99.90;;;;;;4972153;28;20047;-73
2023/04/07 10:16:48;;;;;;;24.98;15.43;;;6.50;99.90;;;;;;4967828;28;20035;-74
2023/04/07 10:19:15;;;;;;;21.90;15.30;;;6.60;99.90;;;;;;4965668;28;20050;-75
2023/04/07 10:21:42;;;;;;;20.77;14.90;;;6.70;99.90;;;;;;4975314;28;20026;-75
2023/04/07 10:24:23;;;;;;;21.75;14.45;;;6.60;99.90;;;;;;4973847;28;20019;-72
2023/04/07 10:27:03;;;;;;;20.92;13.65;;;6.70;99.90;;;;;;4963582;28;20039;-73
2023/04/07 10:29:33;;;;;;;24.58;14.75;;;6.80;99.90;;;;;;4974189;28;20039;-73
2023/04/07 10:32:01;;;;;;;25.27;15.20;;;7.00;99.90;;;;;;4974071;28;20028;-74
2023/04/07 10:34:49;;;;;;;22.10;15.45;;;7.10;99.90;;;;;;4975076;28;20065;-70
2023/04/07 10:37:19;;;;;;;22.80;14.52;;;7.30;99.90;;;;;;4963710;28;20115;-70
2023/04/07 10:39:46;;;;;;;24.02;16.05;;;7.60;99.90;;;;;;4974420;28;20031;-75
2023/04/07 10:42:40;;;;;;;21.27;14.50;;;7.90;99.90;;;;;;4974666;28;20034;-73
2023/04/07 10:45:08;;;;;;;20.63;14.30;;;8.00;99.90;;;;;;4974223;28;20047;-74
2023/04/07 10:47:35;;;;;;;21.13;14.65;;;8.10;99.90;;;;;;4973083;28;20114;-74
2023/04/07 10:50:22;;;;;;;19.52;11.95;;;7.80;99.90;;;;;;4965486;28;20031;-71
2023/04/07 10:53:03;;;;;;;20.05;13.88;;;7.40;99.90;;;;;;4987172;28;20088;-71
2023/04/07 10:55:31;;;;;;;20.95;13.63;;;7.40;99.90;;;;;;4974230;28;20035;-74
2023/04/07 10:58:23;;;;;;;19.75;13.73;;;7.40;99.90;;;;;;4974431;28;20154;-74
2023/04/07 11:01:07;;;;;;;24.08;15.20;;;7.60;99.90;;;;;;4972711;28;20110;-74
2023/04/07 11:03:35;;;;;;;17.75;12.10;;;7.80;99.90;;;;;;4962589;28;20348;-70
2023/04/07 11:06:05;;;;;;;20.23;12.80;;;7.60;99.90;;;;;;4974341;28;20033;-73
2023/04/07 11:08:35;;;;;;;22.52;14.25;;;7.50;99.90;;;;;;4974273;28;20050;-74
2023/04/07 11:11:07;;;;;;;20.02;12.82;;;7.40;99.90;;;;;;4972124;28;20039;-73
2023/04/07 11:14:03;;;;;;;24.23;15.47;;;7.30;99.90;;;;;;4971115;28;20041;-74
2023/04/07 11:16:38;;;;;;;25.95;15.98;;;7.30;99.90;;;;;;4932172;29;20043;-74
2023/04/07 11:19:04;;;;;;;20.50;13.82;;;7.50;99.90;;;;;;4931940;29;20042;-74
2023/04/07 11:21:29;;;;;;;20.65;13.30;;;7.50;99.90;;;;;;4929018;29;20143;-72
2023/04/07 11:23:55;;;;;;;19.38;13.32;;;7.60;99.90;;;;;;4933465;29;20051;-75
2023/04/07 11:26:22;;;;;;;19.92;12.52;;;7.40;99.90;;;;;;4933512;28;20119;-73
2023/04/07 11:28:53;;;;;;;20.23;13.15;;;7.40;99.90;;;;;;4933183;29;20047;-76
2023/04/07 11:31:30;;;;;;;20.40;12.68;;;7.30;99.90;;;;;;4932118;29;20515;-75
2023/04/07 11:34:01;;;;;;;21.90;14.57;;;7.30;99.90;;;;;;4924368;29;20111;-73
2023/04/07 11:36:37;;;;;;;19.48;12.75;;;7.20;99.90;;;;;;4919215;29;20107;-73
2023/04/07 11:39:04;;;;;;;21.42;13.25;;;7.10;99.90;;;;;;4928885;29;20044;-72
2023/04/07 11:41:32;;;;;;;21.67;13.07;;;7.10;99.90;;;;;;4931187;29;20091;-73
2023/04/07 11:44:07;;;;;;;24.23;13.68;;;7.10;99.90;;;;;;4931888;29;20056;-73
2023/04/07 11:46:53;;;;;;;24.23;13.35;;;7.20;99.90;;;;;;4932842;29;20408;-73
2023/04/07 11:49:22;;;;;;;21.70;14.75;;;7.20;99.90;;;;;;4927409;29;20048;-73
2023/04/07 11:51:56;;;;;;;21.33;12.98;;;7.30;99.90;;;;;;4932239;29;20452;-74
2023/04/07 11:54:22;;;;;;;21.85;13.98;;;7.40;99.90;;;;;;4954140;29;20023;-74
2023/04/07 11:56:47;;;;;;;21.02;14.50;;;7.50;99.90;;;;;;4953476;29;20027;-72
2023/04/07 11:59:21;;;;;;;20.73;13.05;;;7.50;99.90;;;;;;4949615;29;20498;-71
2023/04/07 12:01:49;;;;;;;23.80;12.73;;;7.40;99.90;;;;;;4953852;28;20383;-74
2023/04/07 12:04:15;;;;;;;20.40;13.38;;;7.50;99.90;;;;;;4951573;29;20031;-73
2023/04/07 12:06:42;;;;;;;21.80;12.98;;;7.40;99.90;;;;;;4940651;29;20468;-71
2023/04/07 12:09:24;;;;;;;20.00;12.90;;;7.40;99.90;;;;;;4953404;29;20027;-74
2023/04/07 12:11:50;;;;;;;20.47;12.70;;;7.40;99.90;;;;;;4942151;29;20030;-74
2023/04/07 12:14:16;;;;;;;20.75;13.52;;;7.40;99.90;;;;;;4953478;29;20435;-73
2023/04/07 12:16:42;;;;;;;20.10;13.35;;;7.40;99.90;;;;;;4953593;28;20023;-72
2023/04/07 12:19:17;;;;;;;22.13;14.98;;;7.30;99.90;;;;;;4953582;28;20464;-74
2023/04/07 12:21:47;;;;;;;22.15;14.13;;;7.30;99.90;;;;;;4954035;29;20059;-73
2023/04/07 12:24:16;;;;;;;24.13;14.73;;;7.20;99.90;;;;;;4952757;29;20038;-74
2023/04/07 12:26:46;;;;;;;22.17;15.88;;;7.10;99.90;;;;;;4951409;28;20020;-71
2023/04/07 12:29:13;;;;;;;21.90;14.23;;;7.10;99.90;;;;;;4953775;28;20119;-74
2023/04/07 12:31:39;;;;;;;24.40;15.82;;;7.10;99.90;;;;;;4951112;29;20515;-72
2023/04/07 12:34:05;;;;;;;23.55;14.70;;;7.10;99.90;;;;;;4951726;29;20082;-74
2023/04/07 12:36:32;;;;;;;22.13;16.13;;;7.10;99.90;;;;;;4951952;29;20454;-74
2023/04/07 12:38:58;;;;;;;23.45;16.25;;;7.10;99.90;;;;;;4952336;29;20423;-74
2023/04/07 12:41:24;;;;;;;24.17;13.77;;;7.00;99.90;;;;;;4950227;29;20051;-73
2023/04/07 12:43:50;;;;;;;26.05;18.33;;;6.90;99.90;;;;;;4955594;28;20235;-74
2023/04/07 12:46:16;;;;;;;23.45;15.80;;;6.80;99.90;;;;;;4968651;28;20351;-73
2023/04/07 12:48:43;;;;;;;19.38;13.30;;;6.60;99.90;;;;;;4971605;28;20034;-73